CST,Max TemperatureF,Mean TemperatureF,Min TemperatureF,Max Dew PointF,MeanDew PointF,Min DewpointF,Max Humidity, Mean Humidity, Min Humidity, Max Sea Level PressureIn, Mean Sea Level PressureIn, Min Sea Level PressureIn, Max VisibilityMiles, Mean VisibilityMiles, Min VisibilityMiles, Max Wind SpeedMPH, Mean Wind SpeedMPH, Max Gust SpeedMPH,PrecipitationIn, CloudCover, Events, WindDirDegrees
2014-2-1,17,6,-5,16,5,-11,93,77,67,30.24,30.03,29.86,10,9,2,22,11,26,0.00,5,Rain-Snow,295
2014-2-2,19,2,-14,7,-3,-22,85,73,53,30.28,30.21,30.12,10,10,10,14,5,18,0.00,1,,189
2014-2-3,19,7,-5,10,4,-11,86,78,68,30.29,30.18,30.12,10,9,3,15,6,15,0.00,3,Rain-Snow,87
2014-2-4,12,6,0,7,-3,-9,79,71,61,30.43,30.36,30.29,10,7,2,25,17,31,0.00,8,Rain-Snow,24
2014-2-5,3,-3,-9,-4,-9,-17,78,68,56,30.56,30.52,30.44,10,7,2,25,18,31,0.00,6,Rain-Snow,327
2014-2-6,3,-5,-13,-6,-13,-20,77,69,56,30.52,30.40,30.28,10,10,7,20,10,24,0.00,2,,261
2014-2-7,15,2,-11,3,-7,-18,78,70,58,30.28,30.16,30.07,10,10,10,14,9,20,0.00,1,,207
2014-2-8,14,8,1,7,4,-4,85,80,72,30.19,30.05,29.98,10,8,1,12,6,,0.01,5,Snow,189
2014-2-9,5,-6,-16,-4,-12,-24,85,73,61,30.42,30.31,30.19,10,10,8,14,9,17,0.00,1,Snow,315
2014-2-10,1,-11,-23,-8,-19,-31,78,70,61,30.46,30.42,30.39,10,10,9,9,4,,0.00,1,,328
2014-2-11,19,0,-18,12,0,-26,79,72,62,30.41,30.17,29.94,10,10,10,26,12,33,0.00,7,,169
2014-2-12,21,16,12,19,12,7,93,81,73,30.10,29.96,29.69,10,7,1,22,11,30,0.03,8,Snow,216
2014-2-13,37,24,10,28,15,3,93,77,63,29.78,29.66,29.53,10,9,3,29,18,39,0.00,3,Snow,286
2014-2-14,10,2,-7,7,0,-13,85,77,67,30.06,29.93,29.67,10,8,1,20,11,23,0.00,3,Snow,337
2014-2-15,39,18,-2,32,16,-8,87,79,67,30.06,29.85,29.66,10,10,8,25,13,34,0.00,5,Snow,232
2014-2-16,24,14,5,19,12,0,86,81,73,30.15,30.01,29.76,10,9,7,30,14,37,0.00,5,Snow,120
2014-2-17,39,32,24,30,27,19,100,81,65,29.82,29.76,29.69,10,8,0,34,19,40,0.06,2,Snow,238
2014-2-18,42,35,28,34,28,21,100,75,61,29.86,29.67,29.56,10,10,10,18,10,25,0.00,1,,256
2014-2-19,51,38,24,34,28,23,100,73,38,29.86,29.74,29.59,10,10,10,24,10,33,0.00,1,,196
2014-2-20,33,25,17,32,26,10,100,87,73,29.60,29.56,29.46,10,7,0,32,13,43,0.04,7,Rain-Snow,316
2014-2-21,30,22,14,19,12,7,80,67,51,29.85,29.71,29.59,10,10,10,29,18,37,0.00,1,Snow,295
2014-2-22,26,20,14,14,9,3,79,63,50,30.18,30.01,29.85,10,10,10,15,9,22,0.00,4,,317
2014-2-23,24,14,5,12,6,0,85,68,54,30.32,30.27,30.18,10,10,10,17,8,23,0.00,1,,305
2014-2-24,17,10,3,10,5,-2,86,74,58,30.35,30.29,30.22,10,8,1,14,7,15,0.00,7,Snow,32
2014-2-25,8,0,-9,0,-7,-15,85,70,57,30.42,30.36,30.31,10,10,9,24,10,30,0.00,2,,298
2014-2-26,23,6,-11,10,-2,-17,77,68,50,30.38,30.02,29.77,10,10,10,25,13,33,0.00,0,,268
2014-2-27,5,-3,-11,-6,-14,-20,66,57,46,30.16,30.05,29.89,10,10,10,22,11,25,0.00,0,,65
2014-2-28,21,10,0,16,4,-11,93,71,60,30.17,29.89,29.74,10,8,0,21,15,26,0.00,7,Snow,225